sensor_id;sensor_type;location;lat;lon;timestamp;pressure;altitude;pressure_sealevel;temperature;humidity
44313;BME280;38833;51.142;-0.974;2024-02-28T00:01:54;100402.88;;;28.08;24.46
44313;BME280;38833;51.142;-0.974;2024-02-28T00:04:27;100405.84;;;28.05;24.46
44313;BME280;38833;51.142;-0.974;2024-02-28T00:07:01;100401.47;;;27.92;24.51
44313;BME280;38833;51.142;-0.974;2024-02-28T00:09:34;100400.50;;;28.12;24.57
44313;BME280;38833;51.142;-0.974;2024-02-28T00:12:08;100405.63;;;28.13;24.56
44313;BME280;38833;51.142;-0.974;2024-02-28T00:14:41;100406.95;;;27.86;24.55
44313;BME280;38833;51.142;-0.974;2024-02-28T00:17:14;100410.86;;;27.83;24.55
44313;BME280;38833;51.142;-0.974;2024-02-28T00:19:48;100412.05;;;27.75;24.58
44313;BME280;38833;51.142;-0.974;2024-02-28T00:22:21;100416.08;;;27.61;24.70
44313;BME280;38833;51.142;-0.974;2024-02-28T00:24:55;100414.70;;;27.79;24.75
44313;BME280;38833;51.142;-0.974;2024-02-28T00:27:28;100416.39;;;27.80;24.73
44313;BME280;38833;51.142;-0.974;2024-02-28T00:30:01;100417.26;;;27.84;24.70
44313;BME280;38833;51.142;-0.974;2024-02-28T00:32:34;100414.86;;;27.51;24.70
44313;BME280;38833;51.142;-0.974;2024-02-28T00:35:08;100408.26;;;27.46;24.76
44313;BME280;38833;51.142;-0.974;2024-02-28T00:37:41;100404.20;;;27.56;24.86
44313;BME280;38833;51.142;-0.974;2024-02-28T00:40:14;100409.68;;;27.32;24.84
44313;BME280;38833;51.142;-0.974;2024-02-28T00:42:48;100413.70;;;27.58;24.82
44313;BME280;38833;51.142;-0.974;2024-02-28T00:45:21;100413.87;;;27.58;24.82
44313;BME280;38833;51.142;-0.974;2024-02-28T00:47:55;100420.36;;;27.53;24.85
44313;BME280;38833;51.142;-0.974;2024-02-28T00:50:28;100420.47;;;27.65;24.87
44313;BME280;38833;51.142;-0.974;2024-02-28T00:53:02;100411.41;;;27.40;24.90
44313;BME280;38833;51.142;-0.974;2024-02-28T00:55:35;100411.51;;;27.56;24.94
44313;BME280;38833;51.142;-0.974;2024-02-28T00:58:08;100412.17;;;27.51;24.94
44313;BME280;38833;51.142;-0.974;2024-02-28T01:00:42;100419.81;;;27.51;24.93
44313;BME280;38833;51.142;-0.974;2024-02-28T01:03:15;100425.53;;;27.12;25.05
44313;BME280;38833;51.142;-0.974;2024-02-28T01:05:49;100421.99;;;27.12;25.04
44313;BME280;38833;51.142;-0.974;2024-02-28T01:08:23;100417.71;;;27.41;25.00
44313;BME280;38833;51.142;-0.974;2024-02-28T01:10:56;100414.92;;;27.33;25.04
44313;BME280;38833;51.142;-0.974;2024-02-28T01:13:29;100413.47;;;27.27;25.07
44313;BME280;38833;51.142;-0.974;2024-02-28T01:16:03;100416.75;;;27.04;25.03
44313;BME280;38833;51.142;-0.974;2024-02-28T01:18:36;100415.34;;;27.21;25.03
44313;BME280;38833;51.142;-0.974;2024-02-28T01:21:09;100408.90;;;27.12;25.13
44313;BME280;38833;51.142;-0.974;2024-02-28T01:23:43;100407.79;;;27.12;25.11
44313;BME280;38833;51.142;-0.974;2024-02-28T01:26:16;100411.61;;;27.17;25.07
44313;BME280;38833;51.142;-0.974;2024-02-28T01:28:50;100412.67;;;26.98;25.16
44313;BME280;38833;51.142;-0.974;2024-02-28T01:31:23;100415.54;;;26.96;25.18
44313;BME280;38833;51.142;-0.974;2024-02-28T01:33:56;100410.28;;;27.11;25.19
44313;BME280;38833;51.142;-0.974;2024-02-28T01:36:30;100407.36;;;26.94;25.16
44313;BME280;38833;51.142;-0.974;2024-02-28T01:39:03;100402.82;;;27.10;25.18
44313;BME280;38833;51.142;-0.974;2024-02-28T01:41:37;100396.53;;;26.92;25.14
44313;BME280;38833;51.142;-0.974;2024-02-28T01:44:10;100400.58;;;26.83;25.20
44313;BME280;38833;51.142;-0.974;2024-02-28T01:46:43;100407.84;;;26.79;25.22
44313;BME280;38833;51.142;-0.974;2024-02-28T01:49:17;100408.34;;;26.72;25.25
44313;BME280;38833;51.142;-0.974;2024-02-28T01:51:53;100406.89;;;26.97;25.22
44313;BME280;38833;51.142;-0.974;2024-02-28T01:54:27;100411.18;;;26.73;25.23
44313;BME280;38833;51.142;-0.974;2024-02-28T01:57:02;100411.84;;;26.65;25.25
44313;BME280;38833;51.142;-0.974;2024-02-28T01:59:37;100411.16;;;26.82;25.29
44313;BME280;38833;51.142;-0.974;2024-02-28T02:02:10;100412.27;;;26.54;25.32
44313;BME280;38833;51.142;-0.974;2024-02-28T02:04:43;100411.76;;;26.61;25.28
44313;BME280;38833;51.142;-0.974;2024-02-28T02:07:17;100404.14;;;26.56;25.26
44313;BME280;38833;51.142;-0.974;2024-02-28T02:09:51;100411.09;;;26.64;25.35
44313;BME280;38833;51.142;-0.974;2024-02-28T02:12:24;100414.68;;;26.64;25.34
44313;BME280;38833;51.142;-0.974;2024-02-28T02:18:42;100409.01;;;26.50;25.22
44313;BME280;38833;51.142;-0.974;2024-02-28T02:21:18;100405.19;;;26.50;25.21
44313;BME280;38833;51.142;-0.974;2024-02-28T02:23:52;100406.62;;;26.38;25.27
44313;BME280;38833;51.142;-0.974;2024-02-28T02:26:26;100406.27;;;26.58;25.28
44313;BME280;38833;51.142;-0.974;2024-02-28T02:28:59;100406.91;;;26.61;25.23
44313;BME280;38833;51.142;-0.974;2024-02-28T02:31:32;100407.85;;;26.70;25.37
44313;BME280;38833;51.142;-0.974;2024-02-28T02:34:06;100407.74;;;26.45;25.34
44313;BME280;38833;51.142;-0.974;2024-02-28T02:36:39;100412.47;;;26.38;25.38
44313;BME280;38833;51.142;-0.974;2024-02-28T02:39:13;100415.89;;;26.37;25.38
44313;BME280;38833;51.142;-0.974;2024-02-28T02:41:46;100419.84;;;26.12;25.38
44313;BME280;38833;51.142;-0.974;2024-02-28T02:44:19;100421.27;;;26.26;25.46
44313;BME280;38833;51.142;-0.974;2024-02-28T02:46:53;100417.78;;;26.37;25.33
44313;BME280;38833;51.142;-0.974;2024-02-28T02:49:26;100413.08;;;26.29;25.39
44313;BME280;38833;51.142;-0.974;2024-02-28T02:51:59;100405.67;;;26.52;25.41
44313;BME280;38833;51.142;-0.974;2024-02-28T02:54:33;100398.52;;;26.11;25.50
44313;BME280;38833;51.142;-0.974;2024-02-28T02:57:06;100392.61;;;25.96;25.42
44313;BME280;38833;51.142;-0.974;2024-02-28T02:59:40;100393.21;;;26.10;25.47
44313;BME280;38833;51.142;-0.974;2024-02-28T03:02:13;100391.34;;;26.28;25.55
44313;BME280;38833;51.142;-0.974;2024-02-28T03:04:46;100394.46;;;25.78;25.52
44313;BME280;38833;51.142;-0.974;2024-02-28T03:07:19;100398.94;;;25.93;25.58
44313;BME280;38833;51.142;-0.974;2024-02-28T03:09:53;100403.74;;;25.95;25.55
44313;BME280;38833;51.142;-0.974;2024-02-28T03:12:26;100402.40;;;26.12;25.62
44313;BME280;38833;51.142;-0.974;2024-02-28T03:14:59;100403.04;;;26.13;25.61
44313;BME280;38833;51.142;-0.974;2024-02-28T03:17:32;100404.55;;;25.82;25.64
44313;BME280;38833;51.142;-0.974;2024-02-28T03:20:06;100406.95;;;26.08;25.62
44313;BME280;38833;51.142;-0.974;2024-02-28T03:22:40;100408.94;;;25.79;25.64
44313;BME280;38833;51.142;-0.974;2024-02-28T03:25:13;100409.20;;;25.81;25.61
44313;BME280;38833;51.142;-0.974;2024-02-28T03:27:46;100404.97;;;25.70;25.67
44313;BME280;38833;51.142;-0.974;2024-02-28T03:30:20;100402.19;;;25.69;25.67
44313;BME280;38833;51.142;-0.974;2024-02-28T03:32:53;100400.46;;;26.03;25.58
44313;BME280;38833;51.142;-0.974;2024-02-28T03:35:26;100394.40;;;25.64;25.68
44313;BME280;38833;51.142;-0.974;2024-02-28T03:38:00;100385.66;;;25.59;25.70
44313;BME280;38833;51.142;-0.974;2024-02-28T03:40:33;100388.42;;;25.87;25.68
44313;BME280;38833;51.142;-0.974;2024-02-28T03:43:06;100387.06;;;25.81;25.70
44313;BME280;38833;51.142;-0.974;2024-02-28T03:45:40;100387.18;;;25.81;25.70
44313;BME280;38833;51.142;-0.974;2024-02-28T03:48:13;100389.42;;;25.48;25.71
44313;BME280;38833;51.142;-0.974;2024-02-28T03:50:47;100389.08;;;25.58;25.65
44313;BME280;38833;51.142;-0.974;2024-02-28T03:53:20;100387.57;;;25.72;25.74
44313;BME280;38833;51.142;-0.974;2024-02-28T03:55:53;100389.57;;;25.73;25.70
44313;BME280;38833;51.142;-0.974;2024-02-28T03:58:27;100391.66;;;25.66;25.75
44313;BME280;38833;51.142;-0.974;2024-02-28T04:01:01;100396.77;;;25.69;25.70
44313;BME280;38833;51.142;-0.974;2024-02-28T04:03:34;100393.31;;;25.42;25.70
44313;BME280;38833;51.142;-0.974;2024-02-28T04:06:08;100395.29;;;25.39;25.71
44313;BME280;38833;51.142;-0.974;2024-02-28T04:08:41;100404.63;;;25.58;25.75
44313;BME280;38833;51.142;-0.974;2024-02-28T04:11:17;100414.49;;;25.59;25.82
44313;BME280;38833;51.142;-0.974;2024-02-28T04:13:50;100415.45;;;25.56;26.17
44313;BME280;38833;51.142;-0.974;2024-02-28T04:16:24;100410.45;;;25.56;26.08
44313;BME280;38833;51.142;-0.974;2024-02-28T04:18:57;100397.04;;;25.55;26.07
44313;BME280;38833;51.142;-0.974;2024-02-28T04:21:30;100394.06;;;25.46;26.35
44313;BME280;38833;51.142;-0.974;2024-02-28T04:24:04;100394.85;;;25.65;26.41
44313;BME280;38833;51.142;-0.974;2024-02-28T04:26:37;100397.89;;;25.41;26.76
44313;BME280;38833;51.142;-0.974;2024-02-28T04:29:11;100399.15;;;25.73;26.94
44313;BME280;38833;51.142;-0.974;2024-02-28T04:31:44;100403.99;;;25.62;27.29
44313;BME280;38833;51.142;-0.974;2024-02-28T04:34:17;100395.50;;;25.42;27.24
44313;BME280;38833;51.142;-0.974;2024-02-28T04:36:50;100389.23;;;25.70;27.37
44313;BME280;38833;51.142;-0.974;2024-02-28T04:39:24;100391.34;;;25.81;27.39
44313;BME280;38833;51.142;-0.974;2024-02-28T04:41:57;100391.98;;;25.49;27.73
44313;BME280;38833;51.142;-0.974;2024-02-28T04:44:30;100392.75;;;25.85;27.69
44313;BME280;38833;51.142;-0.974;2024-02-28T04:47:04;100385.92;;;25.91;27.69
44313;BME280;38833;51.142;-0.974;2024-02-28T04:49:38;100383.27;;;25.94;27.96
44313;BME280;38833;51.142;-0.974;2024-02-28T04:52:11;100387.52;;;25.68;28.22
44313;BME280;38833;51.142;-0.974;2024-02-28T04:54:44;100386.86;;;25.72;28.14
44313;BME280;38833;51.142;-0.974;2024-02-28T04:57:18;100382.35;;;25.76;28.23
44313;BME280;38833;51.142;-0.974;2024-02-28T04:59:51;100377.61;;;26.04;28.45
44313;BME280;38833;51.142;-0.974;2024-02-28T05:02:25;100375.03;;;25.84;28.31
44313;BME280;38833;51.142;-0.974;2024-02-28T05:04:58;100371.26;;;25.95;28.24
44313;BME280;38833;51.142;-0.974;2024-02-28T05:07:31;100368.70;;;25.75;28.24
44313;BME280;38833;51.142;-0.974;2024-02-28T05:10:06;100369.27;;;26.08;28.05
44313;BME280;38833;51.142;-0.974;2024-02-28T05:12:39;100359.33;;;26.05;28.16
44313;BME280;38833;51.142;-0.974;2024-02-28T05:15:13;100358.22;;;25.86;28.21
44313;BME280;38833;51.142;-0.974;2024-02-28T05:17:46;100357.71;;;25.89;28.21
44313;BME280;38833;51.142;-0.974;2024-02-28T05:20:19;100350.94;;;26.49;28.30
44313;BME280;38833;51.142;-0.974;2024-02-28T05:22:53;100340.03;;;26.32;28.31
44313;BME280;38833;51.142;-0.974;2024-02-28T05:25:26;100341.10;;;26.61;28.37
44313;BME280;38833;51.142;-0.974;2024-02-28T05:27:59;100338.65;;;26.39;28.36
44313;BME280;38833;51.142;-0.974;2024-02-28T05:30:33;100332.01;;;26.33;28.59
44313;BME280;38833;51.142;-0.974;2024-02-28T05:33:06;100325.67;;;26.15;28.52
44313;BME280;38833;51.142;-0.974;2024-02-28T05:35:39;100325.11;;;26.63;28.50
44313;BME280;38833;51.142;-0.974;2024-02-28T05:38:13;100331.05;;;26.48;28.53
44313;BME280;38833;51.142;-0.974;2024-02-28T05:40:46;100329.62;;;26.18;28.83
44313;BME280;38833;51.142;-0.974;2024-02-28T05:43:19;100325.67;;;26.48;28.90
44313;BME280;38833;51.142;-0.974;2024-02-28T05:45:53;100324.73;;;26.68;29.11
44313;BME280;38833;51.142;-0.974;2024-02-28T05:48:26;100329.75;;;26.55;29.11
44313;BME280;38833;51.142;-0.974;2024-02-28T05:51:01;100335.80;;;26.59;28.57
44313;BME280;38833;51.142;-0.974;2024-02-28T05:53:34;100326.78;;;26.06;28.97
44313;BME280;38833;51.142;-0.974;2024-02-28T05:56:08;100320.47;;;26.23;28.86
44313;BME280;38833;51.142;-0.974;2024-02-28T05:58:43;100326.49;;;26.52;28.47
44313;BME280;38833;51.142;-0.974;2024-02-28T06:01:17;100331.05;;;26.85;28.39
44313;BME280;38833;51.142;-0.974;2024-02-28T06:03:51;100322.74;;;26.46;28.27
44313;BME280;38833;51.142;-0.974;2024-02-28T06:06:24;100323.79;;;27.09;28.01
44313;BME280;38833;51.142;-0.974;2024-02-28T06:08:57;100329.34;;;26.83;28.07
44313;BME280;38833;51.142;-0.974;2024-02-28T06:11:31;100329.51;;;26.70;28.29
44313;BME280;38833;51.142;-0.974;2024-02-28T06:14:04;100324.63;;;27.19;27.86
44313;BME280;38833;51.142;-0.974;2024-02-28T06:16:37;100325.47;;;27.26;27.83
44313;BME280;38833;51.142;-0.974;2024-02-28T06:19:11;100322.39;;;27.35;27.79
44313;BME280;38833;51.142;-0.974;2024-02-28T06:21:44;100320.34;;;27.54;27.70
44313;BME280;38833;51.142;-0.974;2024-02-28T06:24:17;100325.22;;;27.77;27.58
44313;BME280;38833;51.142;-0.974;2024-02-28T06:26:50;100330.97;;;27.76;27.61
44313;BME280;38833;51.142;-0.974;2024-02-28T06:29:24;100332.76;;;28.02;27.48
44313;BME280;38833;51.142;-0.974;2024-02-28T06:31:57;100328.58;;;28.06;27.75
44313;BME280;38833;51.142;-0.974;2024-02-28T06:34:31;100323.37;;;28.01;25.57
44313;BME280;38833;51.142;-0.974;2024-02-28T06:37:04;100316.70;;;27.58;25.54
44313;BME280;38833;51.142;-0.974;2024-02-28T06:39:37;100316.01;;;27.98;24.88
44313;BME280;38833;51.142;-0.974;2024-02-28T06:42:11;100309.78;;;27.92;24.73
44313;BME280;38833;51.142;-0.974;2024-02-28T06:44:44;100310.06;;;28.14;24.31
44313;BME280;38833;51.142;-0.974;2024-02-28T06:47:17;100311.47;;;28.00;24.46
44313;BME280;38833;51.142;-0.974;2024-02-28T06:49:50;100314.06;;;27.90;24.56
44313;BME280;38833;51.142;-0.974;2024-02-28T06:52:24;100317.62;;;27.96;24.44
44313;BME280;38833;51.142;-0.974;2024-02-28T06:55:43;100320.12;;;28.09;24.36
44313;BME280;38833;51.142;-0.974;2024-02-28T06:58:16;100315.17;;;28.19;24.12
44313;BME280;38833;51.142;-0.974;2024-02-28T07:00:50;100310.82;;;27.96;24.83
44313;BME280;38833;51.142;-0.974;2024-02-28T07:03:23;100310.19;;;27.99;24.67
44313;BME280;38833;51.142;-0.974;2024-02-28T07:05:56;100313.16;;;28.06;24.64
44313;BME280;38833;51.142;-0.974;2024-02-28T07:08:30;100314.56;;;28.12;24.58
44313;BME280;38833;51.142;-0.974;2024-02-28T07:11:04;100316.86;;;27.66;25.14
44313;BME280;38833;51.142;-0.974;2024-02-28T07:13:38;100325.93;;;28.42;24.57
44313;BME280;38833;51.142;-0.974;2024-02-28T07:16:11;100323.23;;;27.87;24.66
44313;BME280;38833;51.142;-0.974;2024-02-28T07:18:44;100323.65;;;27.93;24.99
44313;BME280;38833;51.142;-0.974;2024-02-28T07:21:18;100329.72;;;28.15;24.69
44313;BME280;38833;51.142;-0.974;2024-02-28T07:23:51;100330.95;;;28.35;24.42
44313;BME280;38833;51.142;-0.974;2024-02-28T07:26:24;100330.36;;;27.92;24.87
44313;BME280;38833;51.142;-0.974;2024-02-28T07:28:58;100337.19;;;28.29;24.48
44313;BME280;38833;51.142;-0.974;2024-02-28T07:31:31;100341.99;;;27.99;24.80
44313;BME280;38833;51.142;-0.974;2024-02-28T07:34:04;100346.13;;;28.10;24.75
44313;BME280;38833;51.142;-0.974;2024-02-28T07:36:37;100339.61;;;28.14;24.70
44313;BME280;38833;51.142;-0.974;2024-02-28T07:39:11;100335.24;;;28.39;24.43
44313;BME280;38833;51.142;-0.974;2024-02-28T07:41:44;100328.99;;;27.92;24.88
44313;BME280;38833;51.142;-0.974;2024-02-28T07:44:17;100330.27;;;28.28;24.62
44313;BME280;38833;51.142;-0.974;2024-02-28T07:46:51;100330.37;;;28.41;24.78
44313;BME280;38833;51.142;-0.974;2024-02-28T07:49:24;100325.31;;;28.24;25.00
44313;BME280;38833;51.142;-0.974;2024-02-28T07:51:57;100326.22;;;28.07;24.96
44313;BME280;38833;51.142;-0.974;2024-02-28T08:00:23;100337.20;;;28.41;24.64
44313;BME280;38833;51.142;-0.974;2024-02-28T08:02:57;100341.16;;;28.19;24.78
44313;BME280;38833;51.142;-0.974;2024-02-28T08:05:30;100341.64;;;28.07;24.70
44313;BME280;38833;51.142;-0.974;2024-02-28T08:08:04;100341.02;;;28.37;24.62
44313;BME280;38833;51.142;-0.974;2024-02-28T08:10:38;100337.10;;;28.85;24.26
44313;BME280;38833;51.142;-0.974;2024-02-28T08:13:11;100340.61;;;28.54;24.32
44313;BME280;38833;51.142;-0.974;2024-02-28T08:15:45;100338.38;;;28.87;24.19
44313;BME280;38833;51.142;-0.974;2024-02-28T08:18:18;100337.00;;;28.78;24.27
44313;BME280;38833;51.142;-0.974;2024-02-28T08:20:51;100334.70;;;28.82;24.17
44313;BME280;38833;51.142;-0.974;2024-02-28T08:23:24;100333.34;;;28.80;24.19
44313;BME280;38833;51.142;-0.974;2024-02-28T08:25:58;100333.58;;;28.46;24.26
44313;BME280;38833;51.142;-0.974;2024-02-28T08:28:31;100337.76;;;28.43;24.24
44313;BME280;38833;51.142;-0.974;2024-02-28T08:31:04;100339.99;;;28.48;24.17
44313;BME280;38833;51.142;-0.974;2024-02-28T08:33:37;100344.45;;;28.52;24.33
44313;BME280;38833;51.142;-0.974;2024-02-28T08:36:11;100354.18;;;28.59;24.23
44313;BME280;38833;51.142;-0.974;2024-02-28T08:38:44;100351.37;;;28.32;24.25
44313;BME280;38833;51.142;-0.974;2024-02-28T08:41:17;100339.32;;;28.39;24.35
44313;BME280;38833;51.142;-0.974;2024-02-28T08:43:51;100333.75;;;28.48;24.32
44313;BME280;38833;51.142;-0.974;2024-02-28T08:46:24;100328.15;;;28.26;24.26
44313;BME280;38833;51.142;-0.974;2024-02-28T08:48:58;100329.24;;;28.47;24.28
44313;BME280;38833;51.142;-0.974;2024-02-28T08:51:31;100338.68;;;28.33;24.36
44313;BME280;38833;51.142;-0.974;2024-02-28T08:54:04;100345.26;;;28.43;24.31
44313;BME280;38833;51.142;-0.974;2024-02-28T08:56:38;100349.27;;;28.33;24.37
44313;BME280;38833;51.142;-0.974;2024-02-28T08:59:11;100346.42;;;27.93;24.49
44313;BME280;38833;51.142;-0.974;2024-02-28T09:01:44;100343.84;;;28.54;24.40
44313;BME280;38833;51.142;-0.974;2024-02-28T09:04:18;100346.34;;;28.23;24.42
44313;BME280;38833;51.142;-0.974;2024-02-28T09:06:51;100345.35;;;28.16;24.44
44313;BME280;38833;51.142;-0.974;2024-02-28T09:09:24;100353.79;;;28.26;24.38
44313;BME280;38833;51.142;-0.974;2024-02-28T09:11:58;100351.16;;;28.07;24.49
44313;BME280;38833;51.142;-0.974;2024-02-28T09:14:31;100353.61;;;28.00;24.53
44313;BME280;38833;51.142;-0.974;2024-02-28T09:17:04;100354.54;;;28.10;24.45
44313;BME280;38833;51.142;-0.974;2024-02-28T09:19:38;100352.44;;;28.07;24.42
44313;BME280;38833;51.142;-0.974;2024-02-28T09:22:11;100349.77;;;27.97;24.47
44313;BME280;38833;51.142;-0.974;2024-02-28T09:24:44;100346.81;;;28.01;24.46
44313;BME280;38833;51.142;-0.974;2024-02-28T09:27:18;100355.43;;;27.93;24.47
44313;BME280;38833;51.142;-0.974;2024-02-28T09:29:51;100359.08;;;27.92;24.51
44313;BME280;38833;51.142;-0.974;2024-02-28T09:32:25;100359.60;;;27.73;24.64
44313;BME280;38833;51.142;-0.974;2024-02-28T09:34:58;100353.07;;;27.64;24.68
44313;BME280;38833;51.142;-0.974;2024-02-28T09:37:31;100349.31;;;27.61;24.59
44313;BME280;38833;51.142;-0.974;2024-02-28T09:40:07;100345.34;;;27.90;24.57
44313;BME280;38833;51.142;-0.974;2024-02-28T09:42:41;100350.41;;;27.56;24.67
44313;BME280;38833;51.142;-0.974;2024-02-28T09:45:15;100349.60;;;27.62;24.54
44313;BME280;38833;51.142;-0.974;2024-02-28T09:47:49;100351.34;;;27.64;24.50
44313;BME280;38833;51.142;-0.974;2024-02-28T09:50:22;100356.69;;;27.56;24.56
44313;BME280;38833;51.142;-0.974;2024-02-28T09:52:56;100359.54;;;27.61;24.54
44313;BME280;38833;51.142;-0.974;2024-02-28T09:55:29;100358.79;;;27.56;24.50
44313;BME280;38833;51.142;-0.974;2024-02-28T09:58:03;100357.58;;;27.99;24.56
44313;BME280;38833;51.142;-0.974;2024-02-28T10:00:37;100352.71;;;27.75;24.50
44313;BME280;38833;51.142;-0.974;2024-02-28T10:03:11;100349.02;;;27.47;24.53
44313;BME280;38833;51.142;-0.974;2024-02-28T10:05:46;100348.12;;;27.90;24.69
44313;BME280;38833;51.142;-0.974;2024-02-28T10:08:21;100341.75;;;27.54;24.95
44313;BME280;38833;51.142;-0.974;2024-02-28T10:10:55;100340.31;;;27.84;24.81
44313;BME280;38833;51.142;-0.974;2024-02-28T10:13:28;100337.59;;;27.51;24.97
44313;BME280;38833;51.142;-0.974;2024-02-28T10:16:01;100335.20;;;27.48;25.16
44313;BME280;38833;51.142;-0.974;2024-02-28T10:18:35;100332.28;;;27.61;25.06
44313;BME280;38833;51.142;-0.974;2024-02-28T10:21:08;100329.74;;;27.47;25.16
44313;BME280;38833;51.142;-0.974;2024-02-28T10:23:42;100326.25;;;27.22;25.14
44313;BME280;38833;51.142;-0.974;2024-02-28T10:26:15;100324.59;;;27.49;25.11
44313;BME280;38833;51.142;-0.974;2024-02-28T10:28:48;100320.45;;;27.53;25.07
44313;BME280;38833;51.142;-0.974;2024-02-28T10:31:22;100317.60;;;27.30;25.08
44313;BME280;38833;51.142;-0.974;2024-02-28T10:33:55;100310.37;;;27.49;25.22
44313;BME280;38833;51.142;-0.974;2024-02-28T10:36:31;100312.54;;;27.23;25.28
44313;BME280;38833;51.142;-0.974;2024-02-28T10:39:05;100306.71;;;27.14;25.15
44313;BME280;38833;51.142;-0.974;2024-02-28T10:41:40;100306.43;;;27.31;25.13
44313;BME280;38833;51.142;-0.974;2024-02-28T10:44:14;100302.20;;;27.34;24.99
44313;BME280;38833;51.142;-0.974;2024-02-28T10:46:50;100305.86;;;27.33;24.92
44313;BME280;38833;51.142;-0.974;2024-02-28T10:49:23;100313.04;;;27.09;24.88
44313;BME280;38833;51.142;-0.974;2024-02-28T10:51:57;100315.64;;;27.10;24.82
44313;BME280;38833;51.142;-0.974;2024-02-28T10:54:33;100317.08;;;27.22;24.88
44313;BME280;38833;51.142;-0.974;2024-02-28T10:57:08;100318.96;;;27.22;24.82
44313;BME280;38833;51.142;-0.974;2024-02-28T10:59:44;100320.47;;;27.19;24.84
44313;BME280;38833;51.142;-0.974;2024-02-28T11:02:18;100321.92;;;27.14;24.85
44313;BME280;38833;51.142;-0.974;2024-02-28T11:04:52;100316.16;;;26.84;24.88
44313;BME280;38833;51.142;-0.974;2024-02-28T11:07:26;100310.34;;;26.96;24.90
44313;BME280;38833;51.142;-0.974;2024-02-28T11:10:05;100308.25;;;26.96;24.90
44313;BME280;38833;51.142;-0.974;2024-02-28T11:12:38;100304.69;;;26.89;24.91
44313;BME280;38833;51.142;-0.974;2024-02-28T11:15:16;100302.75;;;26.67;25.09
44313;BME280;38833;51.142;-0.974;2024-02-28T11:17:50;100304.61;;;26.63;25.14
44313;BME280;38833;51.142;-0.974;2024-02-28T11:20:31;100308.61;;;26.63;25.47
44313;BME280;38833;51.142;-0.974;2024-02-28T11:23:06;100315.37;;;26.93;26.04
44313;BME280;38833;51.142;-0.974;2024-02-28T11:25:40;100312.87;;;26.54;26.47
44313;BME280;38833;51.142;-0.974;2024-02-28T11:28:15;100308.50;;;26.44;26.26
44313;BME280;38833;51.142;-0.974;2024-02-28T11:30:48;100311.68;;;26.59;26.50
44313;BME280;38833;51.142;-0.974;2024-02-28T11:33:22;100306.14;;;26.50;26.48
44313;BME280;38833;51.142;-0.974;2024-02-28T11:35:56;100301.02;;;26.71;26.59
44313;BME280;38833;51.142;-0.974;2024-02-28T11:38:29;100289.46;;;26.49;26.64
44313;BME280;38833;51.142;-0.974;2024-02-28T11:41:02;100290.20;;;26.42;26.57
44313;BME280;38833;51.142;-0.974;2024-02-28T11:43:36;100286.55;;;26.31;26.72
44313;BME280;38833;51.142;-0.974;2024-02-28T11:46:09;100285.52;;;26.27;26.74
44313;BME280;38833;51.142;-0.974;2024-02-28T11:48:42;100283.35;;;26.24;26.71
44313;BME280;38833;51.142;-0.974;2024-02-28T11:51:16;100283.99;;;25.98;26.75
44313;BME280;38833;51.142;-0.974;2024-02-28T11:53:49;100280.03;;;26.20;26.74
44313;BME280;38833;51.142;-0.974;2024-02-28T11:56:22;100278.27;;;26.30;26.46
44313;BME280;38833;51.142;-0.974;2024-02-28T11:58:58;100278.36;;;26.34;26.33
44313;BME280;38833;51.142;-0.974;2024-02-28T12:01:34;100272.40;;;26.29;26.29
44313;BME280;38833;51.142;-0.974;2024-02-28T12:04:08;100269.20;;;26.31;26.24
44313;BME280;38833;51.142;-0.974;2024-02-28T12:06:41;100263.45;;;26.31;26.36
44313;BME280;38833;51.142;-0.974;2024-02-28T12:09:14;100265.22;;;26.17;26.38
44313;BME280;38833;51.142;-0.974;2024-02-28T12:11:48;100261.50;;;26.35;26.46
44313;BME280;38833;51.142;-0.974;2024-02-28T12:14:21;100255.99;;;26.35;26.43
44313;BME280;38833;51.142;-0.974;2024-02-28T12:16:57;100249.09;;;26.21;26.25
44313;BME280;38833;51.142;-0.974;2024-02-28T12:19:31;100248.38;;;26.40;26.39
44313;BME280;38833;51.142;-0.974;2024-02-28T12:22:05;100245.21;;;26.03;26.47
44313;BME280;38833;51.142;-0.974;2024-02-28T12:24:38;100240.28;;;26.25;26.54
44313;BME280;38833;51.142;-0.974;2024-02-28T12:27:11;100232.16;;;26.15;26.68
44313;BME280;38833;51.142;-0.974;2024-02-28T12:29:44;100227.37;;;26.12;26.70
44313;BME280;38833;51.142;-0.974;2024-02-28T12:32:18;100224.49;;;26.06;26.66
44313;BME280;38833;51.142;-0.974;2024-02-28T12:34:51;100222.53;;;26.09;26.67
44313;BME280;38833;51.142;-0.974;2024-02-28T12:37:25;100221.01;;;26.15;26.63
44313;BME280;38833;51.142;-0.974;2024-02-28T12:39:58;100216.15;;;26.18;26.54
44313;BME280;38833;51.142;-0.974;2024-02-28T12:42:31;100210.48;;;26.25;26.58
44313;BME280;38833;51.142;-0.974;2024-02-28T12:45:05;100204.96;;;25.80;26.86
44313;BME280;38833;51.142;-0.974;2024-02-28T12:47:39;100188.87;;;26.18;26.94
44313;BME280;38833;51.142;-0.974;2024-02-28T12:50:13;100182.56;;;25.69;27.37
44313;BME280;38833;51.142;-0.974;2024-02-28T12:52:46;100180.46;;;26.00;27.66
44313;BME280;38833;51.142;-0.974;2024-02-28T12:55:20;100180.69;;;26.36;27.72
44313;BME280;38833;51.142;-0.974;2024-02-28T12:57:53;100178.67;;;26.10;28.02
44313;BME280;38833;51.142;-0.974;2024-02-28T13:00:26;100176.48;;;26.14;27.98
44313;BME280;38833;51.142;-0.974;2024-02-28T13:03:00;100173.65;;;26.19;28.15
44313;BME280;38833;51.142;-0.974;2024-02-28T13:05:33;100173.51;;;26.33;28.13
44313;BME280;38833;51.142;-0.974;2024-02-28T13:08:06;100173.93;;;26.37;28.10
44313;BME280;38833;51.142;-0.974;2024-02-28T13:10:40;100172.52;;;26.29;28.32
44313;BME280;38833;51.142;-0.974;2024-02-28T13:13:13;100174.47;;;26.41;28.54
44313;BME280;38833;51.142;-0.974;2024-02-28T13:15:46;100161.89;;;26.17;28.56
44313;BME280;38833;51.142;-0.974;2024-02-28T13:18:19;100158.46;;;26.55;28.51
44313;BME280;38833;51.142;-0.974;2024-02-28T13:20:53;100157.07;;;26.22;28.79
44313;BME280;38833;51.142;-0.974;2024-02-28T13:23:26;100155.77;;;26.33;28.83